Time;durP1;ratioP1;P1;durP2;ratioP2;P2;SDS_P1;SDS_P2;PMS_P1;PMS_P2;Temp;Humidity;BMP_temperature;BMP_pressure;BME280_temperature;BME280_humidity;BME280_pressure;Samples;Min_cycle;Max_cycle;Signal;HPM_P1;HPM_P2
2022/04/04 00:01:07;;;;;;;5.18;3.15;;;;;;;;;;5053369;28;20047;-84
2022/04/04 00:03:33;;;;;;;5.28;3.10;;;;;;;;;;5053095;28;20028;-84
2022/04/04 00:05:58;;;;;;;5.25;2.33;;;;;;;;;;5053148;28;20024;-84
2022/04/04 00:08:24;;;;;;;4.28;2.47;;;;;;;;;;5054757;28;20033;-81
2022/04/04 00:10:49;;;;;;;3.97;2.17;;;;;;;;;;5052524;28;20020;-84
2022/04/04 00:13:15;;;;;;;3.42;2.53;;;;;;;;;;5054906;28;20032;-85
2022/04/04 00:15:41;;;;;;;5.07;2.88;;;;;;;;;;5053494;28;20465;-83
2022/04/04 00:18:11;;;;;;;5.43;3.15;;;;;;;;;;5054353;28;20108;-84
2022/04/04 00:20:37;;;;;;;4.93;2.90;;;;;;;;;;5053162;28;20043;-85
2022/04/04 00:23:03;;;;;;;4.35;3.10;;;;;;;;;;5054281;28;20120;-85
2022/04/04 00:25:29;;;;;;;4.18;3.17;;;;;;;;;;5052958;28;20444;-86
2022/04/04 00:27:54;;;;;;;4.70;3.05;;;;;;;;;;5052874;28;20021;-85
2022/04/04 00:30:20;;;;;;;6.43;3.45;;;;;;;;;;5052978;28;20021;-85
2022/04/04 00:32:46;;;;;;;3.92;2.72;;;;;;;;;;5052356;28;20024;-87
2022/04/04 00:35:11;;;;;;;3.67;2.55;;;;;;;;;;5052653;28;20033;-84
2022/04/04 00:37:37;;;;;;;3.38;2.30;;;;;;;;;;5052610;28;20021;-81
2022/04/04 00:40:07;;;;;;;4.90;3.47;;;;;;;;;;5052389;28;20033;-86
2022/04/04 00:42:32;;;;;;;;;;;;;;;;;;5053757;28;20047;-85
2022/04/04 00:44:58;;;;;;;4.82;2.90;;;;;;;;;;5069517;28;20363;-85
2022/04/04 00:47:23;;;;;;;4.03;2.95;;;;;;;;;;5054337;28;20016;-86
2022/04/04 00:49:49;;;;;;;4.47;3.10;;;;;;;;;;5054130;28;20096;-84
2022/04/04 00:52:15;;;;;;;5.03;2.53;;;;;;;;;;5052399;28;20033;-85
2022/04/04 00:54:41;;;;;;;3.65;2.50;;;;;;;;;;5051102;28;20029;-86
2022/04/04 00:57:06;;;;;;;4.63;2.72;;;;;;;;;;5052766;28;20029;-85
2022/04/04 00:59:32;;;;;;;3.72;2.65;;;;;;;;;;5052647;28;20021;-87
2022/04/04 01:01:57;;;;;;;4.72;2.90;;;;;;;;;;5052423;28;20095;-85
2022/04/04 01:04:23;;;;;;;4.40;2.75;;;;;;;;;;5052215;28;20037;-85
2022/04/04 01:06:48;;;;;;;4.07;3.25;;;;;;;;;;5051977;28;20490;-85
2022/04/04 01:09:14;;;;;;;3.75;2.50;;;;;;;;;;5053632;28;20414;-85
2022/04/04 01:12:02;;;;;;;3.25;2.28;;;;;;;;;;5052057;28;20112;-85
2022/04/04 01:14:28;;;;;;;5.13;3.10;;;;;;;;;;5052374;28;20028;-85
2022/04/04 01:16:54;;;;;;;5.38;2.38;;;;;;;;;;5053109;28;20103;-83
2022/04/04 01:19:20;;;;;;;3.95;2.95;;;;;;;;;;5051920;28;20476;-86
2022/04/04 01:21:45;;;;;;;5.65;2.83;;;;;;;;;;5053037;28;20021;-85
2022/04/04 01:24:21;;;;;;;3.63;2.50;;;;;;;;;;5053321;28;20060;-82
2022/04/04 01:26:47;;;;;;;3.50;2.00;;;;;;;;;;5053119;28;20021;-84
2022/04/04 01:29:13;;;;;;;4.03;2.55;;;;;;;;;;5053045;28;20036;-84
2022/04/04 01:31:38;;;;;;;3.40;2.22;;;;;;;;;;5052847;28;20021;-83
2022/04/04 01:34:04;;;;;;;4.55;2.53;;;;;;;;;;5053186;28;20041;-85
2022/04/04 01:36:30;;;;;;;4.63;3.03;;;;;;;;;;5051343;28;20440;-82
2022/04/04 01:38:55;;;;;;;4.03;2.90;;;;;;;;;;5051845;28;20060;-87
2022/04/04 01:41:20;;;;;;;5.25;3.20;;;;;;;;;;5053559;28;20090;-86
2022/04/04 01:43:46;;;;;;;3.78;2.78;;;;;;;;;;5053323;28;20507;-82
2022/04/04 01:46:23;;;;;;;4.35;2.80;;;;;;;;;;5051512;28;20124;-87
2022/04/04 01:48:50;;;;;;;5.78;3.47;;;;;;;;;;5053052;28;20103;-82
2022/04/04 01:51:15;;;;;;;4.15;3.03;;;;;;;;;;5053070;28;20028;-84
2022/04/04 01:53:40;;;;;;;4.88;3.03;;;;;;;;;;5052782;28;20036;-83
2022/04/04 01:56:07;;;;;;;4.28;2.67;;;;;;;;;;5051178;28;20025;-86
2022/04/04 01:58:33;;;;;;;4.75;3.03;;;;;;;;;;5051244;28;20500;-84
2022/04/04 02:01:01;;;;;;;4.57;3.20;;;;;;;;;;5052705;28;20481;-86
2022/04/04 02:03:31;;;;;;;5.15;3.03;;;;;;;;;;5049520;28;20020;-84
2022/04/04 02:05:58;;;;;;;;;;;;;;;;;;5051736;28;20148;-85
2022/04/04 02:08:24;;;;;;;4.57;2.75;;;;;;;;;;5051290;28;19924;-82
2022/04/04 02:10:49;;;;;;;4.60;3.22;;;;;;;;;;5051192;28;20029;-85
2022/04/04 02:13:15;;;;;;;4.65;3.10;;;;;;;;;;5052311;28;20527;-82
2022/04/04 02:15:41;;;;;;;4.45;2.63;;;;;;;;;;5050719;28;20408;-85
2022/04/04 02:18:06;;;;;;;4.32;2.85;;;;;;;;;;5052995;28;20037;-83
2022/04/04 02:20:32;;;;;;;5.63;2.92;;;;;;;;;;5051446;28;20025;-85
2022/04/04 02:22:57;;;;;;;5.18;3.30;;;;;;;;;;5052604;28;20029;-86
2022/04/04 02:25:23;;;;;;;4.85;3.03;;;;;;;;;;5051382;28;20465;-86
2022/04/04 02:27:48;;;;;;;4.35;2.92;;;;;;;;;;5052656;28;20037;-84
2022/04/04 02:30:14;;;;;;;4.47;3.05;;;;;;;;;;5050880;28;20033;-86
2022/04/04 02:32:40;;;;;;;5.80;2.75;;;;;;;;;;5050863;28;20036;-87
2022/04/04 02:35:06;;;;;;;5.05;2.90;;;;;;;;;;5052701;28;20039;-86
2022/04/04 02:37:31;;;;;;;3.42;2.80;;;;;;;;;;5050864;28;20480;-84
2022/04/04 02:39:57;;;;;;;5.38;3.72;;;;;;;;;;5052266;28;20033;-83
2022/04/04 02:42:26;;;;;;;4.85;3.40;;;;;;;;;;5051056;28;20494;-82
2022/04/04 02:44:54;;;;;;;5.10;3.50;;;;;;;;;;5050570;28;20090;-84
2022/04/04 02:47:19;;;;;;;6.47;4.15;;;;;;;;;;5050715;28;20044;-87
2022/04/04 02:49:45;;;;;;;6.80;3.35;;;;;;;;;;5051425;28;20029;-86
2022/04/04 02:52:11;;;;;;;5.57;4.25;;;;;;;;;;5050475;28;20032;-83
2022/04/04 02:54:36;;;;;;;7.07;4.45;;;;;;;;;;5052282;28;20486;-83
2022/04/04 02:57:04;;;;;;;6.63;4.43;;;;;;;;;;5050373;28;20060;-86
2022/04/04 02:59:30;;;;;;;7.43;4.18;;;;;;;;;;5050688;28;20029;-86
2022/04/04 03:01:56;;;;;;;6.25;3.95;;;;;;;;;;5051680;28;20036;-87
2022/04/04 03:04:21;;;;;;;10.23;4.20;;;;;;;;;;5051620;28;20087;-83
2022/04/04 03:06:47;;;;;;;5.65;4.13;;;;;;;;;;5049845;28;20095;-85
2022/04/04 03:09:12;;;;;;;5.57;4.20;;;;;;;;;;5050748;28;20021;-85
2022/04/04 03:11:38;;;;;;;6.95;4.50;;;;;;;;;;5051549;28;20027;-84
2022/04/04 03:14:05;;;;;;;6.18;4.35;;;;;;;;;;5051418;28;20033;-85
2022/04/04 03:16:31;;;;;;;6.55;5.20;;;;;;;;;;5049822;28;20032;-86
2022/04/04 03:18:58;;;;;;;6.70;4.72;;;;;;;;;;5050011;28;20033;-85
2022/04/04 03:21:27;;;;;;;6.43;5.18;;;;;;;;;;5051660;28;20025;-84
2022/04/04 03:23:53;;;;;;;5.68;4.03;;;;;;;;;;5050878;28;20036;-84
2022/04/04 03:26:19;;;;;;;7.13;5.15;;;;;;;;;;5050531;28;20112;-83
2022/04/04 03:28:46;;;;;;;5.93;4.32;;;;;;;;;;5050592;28;20017;-86
2022/04/04 03:31:12;;;;;;;9.20;5.25;;;;;;;;;;5051584;28;20492;-83
2022/04/04 03:33:39;;;;;;;8.40;5.78;;;;;;;;;;5051643;28;20052;-84
2022/04/04 03:36:05;;;;;;;8.35;5.57;;;;;;;;;;5051118;28;20021;-86
2022/04/04 03:38:31;;;;;;;12.27;6.30;;;;;;;;;;5049460;28;20025;-85
2022/04/04 03:40:56;;;;;;;7.93;5.30;;;;;;;;;;5051295;28;20021;-85
2022/04/04 03:43:22;;;;;;;8.73;5.93;;;;;;;;;;5051103;28;20481;-82
2022/04/04 03:45:48;;;;;;;7.72;5.70;;;;;;;;;;5050585;28;20028;-85
2022/04/04 03:48:14;;;;;;;10.77;6.20;;;;;;;;;;5051632;28;20548;-84
2022/04/04 03:50:45;;;;;;;8.13;5.25;;;;;;;;;;5050303;28;20059;-86
2022/04/04 03:53:11;;;;;;;6.65;4.82;;;;;;;;;;5050050;28;20033;-83
2022/04/04 03:55:38;;;;;;;8.68;5.28;;;;;;;;;;5050878;28;20036;-86
2022/04/04 03:58:04;;;;;;;6.57;4.35;;;;;;;;;;5047508;28;20032;-84
2022/04/04 04:00:30;;;;;;;6.57;4.25;;;;;;;;;;5049711;28;20025;-86
2022/04/04 04:02:56;;;;;;;5.80;4.20;;;;;;;;;;5050497;28;20082;-86
2022/04/04 04:05:24;;;;;;;7.22;4.60;;;;;;;;;;5049828;28;20478;-87
2022/04/04 04:07:51;;;;;;;7.00;4.55;;;;;;;;;;5050626;28;20107;-86
2022/04/04 04:10:17;;;;;;;7.40;5.07;;;;;;;;;;5050733;28;20021;-83
2022/04/04 04:12:44;;;;;;;8.15;5.40;;;;;;;;;;5051019;28;20036;-85
2022/04/04 04:15:15;;;;;;;5.60;4.30;;;;;;;;;;5049256;28;20456;-85
2022/04/04 04:17:41;;;;;;;7.68;5.57;;;;;;;;;;5050677;28;20362;-85
2022/04/04 04:20:19;;;;;;;7.22;5.45;;;;;;;;;;5052877;28;20082;-84
2022/04/04 04:22:55;;;;;;;8.52;6.18;;;;;;;;;;5052734;28;20107;-83
2022/04/04 04:25:23;;;;;;;7.25;4.80;;;;;;;;;;5053431;28;20473;-85
2022/04/04 04:27:50;;;;;;;6.60;5.22;;;;;;;;;;5055220;28;20037;-85
2022/04/04 04:30:16;;;;;;;6.88;4.95;;;;;;;;;;5053860;28;20041;-83
2022/04/04 04:32:44;;;;;;;7.60;5.13;;;;;;;;;;5053016;28;20048;-83
2022/04/04 04:35:11;;;;;;;6.57;5.10;;;;;;;;;;5054350;28;20036;-86
2022/04/04 04:37:37;;;;;;;8.60;6.00;;;;;;;;;;5052712;28;20021;-85
2022/04/04 04:40:04;;;;;;;7.05;5.03;;;;;;;;;;5053852;28;20028;-83
2022/04/04 04:42:29;;;;;;;7.80;4.97;;;;;;;;;;5053806;28;20495;-85
2022/04/04 04:44:55;;;;;;;10.75;5.72;;;;;;;;;;5052516;28;20029;-85
2022/04/04 04:47:20;;;;;;;8.52;5.68;;;;;;;;;;5053082;28;20016;-83
2022/04/04 04:49:48;;;;;;;7.45;5.20;;;;;;;;;;5053127;28;20032;-85
2022/04/04 04:52:15;;;;;;;8.85;5.32;;;;;;;;;;5052546;28;20611;-84
2022/04/04 04:54:42;;;;;;;8.20;5.43;;;;;;;;;;5052944;28;20353;-83
2022/04/04 04:57:08;;;;;;;6.90;4.90;;;;;;;;;;5053359;28;20044;-85
2022/04/04 04:59:34;;;;;;;7.75;4.82;;;;;;;;;;5052620;28;20029;-85
2022/04/04 05:01:59;;;;;;;13.25;6.15;;;;;;;;;;5052824;28;20569;-86
2022/04/04 05:04:25;;;;;;;9.60;5.82;;;;;;;;;;5051719;28;20056;-83
2022/04/04 05:06:50;;;;;;;8.93;5.88;;;;;;;;;;5052347;28;20029;-86
2022/04/04 05:09:17;;;;;;;9.05;6.70;;;;;;;;;;5052453;28;20112;-83
2022/04/04 05:11:43;;;;;;;7.60;5.65;;;;;;;;;;5051882;28;20070;-82
2022/04/04 05:14:15;;;;;;;10.80;7.07;;;;;;;;;;5052134;28;20496;-83
2022/04/04 05:16:44;;;;;;;9.35;7.07;;;;;;;;;;5052013;28;20023;-84
2022/04/04 05:19:17;;;;;;;8.48;6.55;;;;;;;;;;5052424;28;20159;-83
2022/04/04 05:21:42;;;;;;;9.25;6.47;;;;;;;;;;5052479;28;20033;-83
2022/04/04 05:24:08;;;;;;;9.38;6.72;;;;;;;;;;5051771;28;20032;-80
2022/04/04 05:26:34;;;;;;;10.82;6.65;;;;;;;;;;5052768;28;20025;-80
2022/04/04 05:29:00;;;;;;;8.05;6.03;;;;;;;;;;5051339;28;20397;-82
2022/04/04 05:31:26;;;;;;;9.00;6.15;;;;;;;;;;5051143;28;20029;-82
2022/04/04 05:33:51;;;;;;;11.23;6.55;;;;;;;;;;5052934;28;20116;-84
2022/04/04 05:36:20;;;;;;;14.00;6.32;;;;;;;;;;5052817;28;20442;-82
2022/04/04 05:38:45;;;;;;;9.13;6.13;;;;;;;;;;5053063;28;20048;-83
2022/04/04 05:41:11;;;;;;;9.98;6.68;;;;;;;;;;5056201;28;20063;-84
2022/04/04 05:43:36;;;;;;;9.05;6.22;;;;;;;;;;5052647;28;20041;-81
2022/04/04 05:46:02;;;;;;;10.15;6.32;;;;;;;;;;5051057;28;20029;-83
2022/04/04 05:48:30;;;;;;;11.82;6.15;;;;;;;;;;5051666;28;20162;-86
2022/04/04 05:50:56;;;;;;;8.80;6.13;;;;;;;;;;5058181;28;20138;-82
2022/04/04 05:53:22;;;;;;;9.23;6.32;;;;;;;;;;5051301;28;20032;-86
2022/04/04 05:55:47;;;;;;;12.63;7.80;;;;;;;;;;5052878;28;20021;-83
2022/04/04 05:58:12;;;;;;;8.43;6.00;;;;;;;;;;5052463;28;20536;-83
2022/04/04 06:00:38;;;;;;;9.02;6.43;;;;;;;;;;5050842;28;20425;-81
2022/04/04 06:03:03;;;;;;;7.95;5.63;;;;;;;;;;5052590;28;20485;-86
2022/04/04 06:05:30;;;;;;;7.97;5.63;;;;;;;;;;5052181;28;20025;-84
2022/04/04 06:07:55;;;;;;;10.07;6.78;;;;;;;;;;5052916;28;20055;-85
2022/04/04 06:10:21;;;;;;;10.02;6.00;;;;;;;;;;5052438;28;20028;-84
2022/04/04 06:12:47;;;;;;;8.93;6.03;;;;;;;;;;5051224;28;20016;-86
2022/04/04 06:15:14;;;;;;;10.20;6.75;;;;;;;;;;5052733;28;20060;-85
2022/04/04 06:17:41;;;;;;;7.55;5.45;;;;;;;;;;5050509;28;20025;-83
2022/04/04 06:20:08;;;;;;;9.85;6.90;;;;;;;;;;5049861;28;20107;-81
2022/04/04 06:22:38;;;;;;;7.53;5.38;;;;;;;;;;5050565;28;20033;-86
2022/04/04 06:25:07;;;;;;;10.02;6.72;;;;;;;;;;5048238;28;20552;-84
2022/04/04 06:27:33;;;;;;;11.18;6.70;;;;;;;;;;5049531;28;20036;-86
2022/04/04 06:29:59;;;;;;;10.95;6.28;;;;;;;;;;5051457;28;21024;-83
2022/04/04 06:32:25;;;;;;;8.30;5.45;;;;;;;;;;5051186;28;20083;-83
2022/04/04 06:34:51;;;;;;;9.13;5.57;;;;;;;;;;5049057;28;20049;-85
2022/04/04 06:37:16;;;;;;;8.25;6.07;;;;;;;;;;5051235;28;20035;-82
2022/04/04 06:39:42;;;;;;;11.57;6.28;;;;;;;;;;5051747;28;20036;-81
2022/04/04 06:42:08;;;;;;;8.52;6.57;;;;;;;;;;5050904;28;20075;-84
2022/04/04 06:44:34;;;;;;;10.07;6.75;;;;;;;;;;5051466;28;20036;-82
2022/04/04 06:46:59;;;;;;;9.85;6.80;;;;;;;;;;5051330;28;20040;-79
2022/04/04 06:49:25;;;;;;;8.23;6.07;;;;;;;;;;5051840;28;20025;-82
2022/04/04 06:51:51;;;;;;;9.20;5.53;;;;;;;;;;5051826;28;20032;-83
2022/04/04 06:54:18;;;;;;;8.35;6.05;;;;;;;;;;5051724;28;20036;-83
2022/04/04 06:56:46;;;;;;;9.55;6.80;;;;;;;;;;5051236;28;20032;-82
2022/04/04 06:59:13;;;;;;;29.10;17.95;;;;;;;;;;5051609;28;20029;-81
2022/04/04 07:01:38;;;;;;;24.70;15.80;;;;;;;;;;5051321;28;20052;-82
2022/04/04 07:04:04;;;;;;;22.42;13.13;;;;;;;;;;5051164;28;20531;-82
2022/04/04 07:06:30;;;;;;;8.88;5.68;;;;;;;;;;5050733;28;20048;-83
2022/04/04 07:08:55;;;;;;;8.70;6.63;;;;;;;;;;5050488;28;20028;-81
2022/04/04 07:11:21;;;;;;;8.27;5.85;;;;;;;;;;5051447;28;20016;-81
2022/04/04 07:13:52;;;;;;;7.65;6.57;;;;;;;;;;5051342;28;20033;-81
2022/04/04 07:16:17;;;;;;;8.73;6.35;;;;;;;;;;5050955;28;20017;-80
2022/04/04 07:18:43;;;;;;;20.70;13.18;;;;;;;;;;5051329;28;20048;-82
2022/04/04 07:21:09;;;;;;;11.57;7.82;;;;;;;;;;5049932;28;20033;-80
2022/04/04 07:23:35;;;;;;;14.98;9.88;;;;;;;;;;5049835;28;20040;-82
2022/04/04 07:26:00;;;;;;;14.02;9.25;;;;;;;;;;5049716;28;20028;-83
2022/04/04 07:28:25;;;;;;;11.18;8.45;;;;;;;;;;5051079;28;20020;-81
2022/04/04 07:30:52;;;;;;;8.00;6.32;;;;;;;;;;5051239;28;20103;-81
2022/04/04 07:33:18;;;;;;;8.68;6.75;;;;;;;;;;5050917;28;20051;-81
2022/04/04 07:35:45;;;;;;;10.93;7.20;;;;;;;;;;5051012;28;20369;-82
2022/04/04 07:38:10;;;;;;;10.50;7.55;;;;;;;;;;5051009;28;20088;-84
2022/04/04 07:40:36;;;;;;;10.75;7.93;;;;;;;;;;5051075;28;20105;-81
2022/04/04 07:43:01;;;;;;;14.55;8.38;;;;;;;;;;5051031;28;20531;-83
2022/04/04 07:45:29;;;;;;;11.80;8.45;;;;;;;;;;5050464;28;20021;-82
2022/04/04 07:47:55;;;;;;;14.63;9.32;;;;;;;;;;5051733;28;20024;-81
2022/04/04 07:50:21;;;;;;;15.90;8.82;;;;;;;;;;5050800;28;20029;-84
2022/04/04 07:52:47;;;;;;;13.57;8.68;;;;;;;;;;5051438;28;20370;-83
2022/04/04 07:55:13;;;;;;;15.63;9.52;;;;;;;;;;5053869;28;20120;-84
2022/04/04 07:57:39;;;;;;;19.02;10.93;;;;;;;;;;5055076;28;20108;-82
2022/04/04 08:00:07;;;;;;;12.05;8.57;;;;;;;;;;5054865;28;20020;-83
2022/04/04 08:02:32;;;;;;;17.08;10.05;;;;;;;;;;5054792;28;20033;-81
2022/04/04 08:04:58;;;;;;;21.15;11.98;;;;;;;;;;5054741;28;20039;-82
2022/04/04 08:07:23;;;;;;;18.00;9.27;;;;;;;;;;5053374;28;20020;-81
2022/04/04 08:09:49;;;;;;;34.50;16.50;;;;;;;;;;5053200;28;20029;-83
2022/04/04 08:12:14;;;;;;;13.63;8.95;;;;;;;;;;5054533;28;20036;-81
2022/04/04 08:14:40;;;;;;;13.10;7.30;;;;;;;;;;5054968;28;20025;-82
2022/04/04 08:17:06;;;;;;;12.98;8.18;;;;;;;;;;5054587;28;20094;-81
2022/04/04 08:19:32;;;;;;;20.83;12.30;;;;;;;;;;5054798;28;20082;-83
2022/04/04 08:21:58;;;;;;;12.15;8.20;;;;;;;;;;5054553;28;20384;-81
2022/04/04 08:24:23;;;;;;;19.90;11.90;;;;;;;;;;5053150;28;20029;-84
2022/04/04 08:26:49;;;;;;;15.00;9.23;;;;;;;;;;5054539;28;20116;-82
2022/04/04 08:29:15;;;;;;;10.40;7.35;;;;;;;;;;5054482;28;20507;-81
2022/04/04 08:31:41;;;;;;;10.52;7.78;;;;;;;;;;5052959;28;20103;-82
2022/04/04 08:34:07;;;;;;;9.73;7.20;;;;;;;;;;5054272;28;20055;-81
2022/04/04 08:36:33;;;;;;;10.18;6.82;;;;;;;;;;5054310;28;20037;-82
2022/04/04 08:38:59;;;;;;;10.45;7.68;;;;;;;;;;5052987;28;20029;-83
2022/04/04 08:41:25;;;;;;;9.65;6.68;;;;;;;;;;5052882;28;20384;-82
2022/04/04 08:43:56;;;;;;;10.27;7.63;;;;;;;;;;5054102;28;20388;-80
2022/04/04 08:46:23;;;;;;;11.10;7.88;;;;;;;;;;5049286;28;20057;-80
2022/04/04 08:48:49;;;;;;;9.80;7.53;;;;;;;;;;5053979;28;20040;-83
2022/04/04 08:51:15;;;;;;;11.05;7.45;;;;;;;;;;5052417;28;20468;-84
2022/04/04 08:53:41;;;;;;;10.10;7.53;;;;;;;;;;5053965;28;20021;-81
2022/04/04 08:56:10;;;;;;;10.90;7.38;;;;;;;;;;5053498;28;20020;-84
2022/04/04 08:58:35;;;;;;;9.83;7.50;;;;;;;;;;5053801;28;20033;-84
2022/04/04 09:01:01;;;;;;;9.65;7.63;;;;;;;;;;5054079;28;20262;-81
2022/04/04 09:03:31;;;;;;;10.82;8.02;;;;;;;;;;5052192;28;20020;-79
2022/04/04 09:06:03;;;;;;;9.90;7.88;;;;;;;;;;5053101;28;20044;-82
2022/04/04 09:08:29;;;;;;;11.00;7.75;;;;;;;;;;5053841;28;20025;-83
2022/04/04 09:11:00;;;;;;;14.55;7.72;;;;;;;;;;5053104;28;20036;-82
2022/04/04 09:13:27;;;;;;;10.13;7.38;;;;;;;;;;5056314;28;20116;-81
2022/04/04 09:15:52;;;;;;;9.05;7.15;;;;;;;;;;5048177;28;20041;-83
2022/04/04 09:18:19;;;;;;;10.05;8.23;;;;;;;;;;5053384;28;20071;-81
2022/04/04 09:20:52;;;;;;;10.98;7.35;;;;;;;;;;5052981;28;20461;-81
2022/04/04 09:23:17;;;;;;;9.75;7.53;;;;;;;;;;5053320;28;20036;-83
2022/04/04 09:25:43;;;;;;;10.23;7.57;;;;;;;;;;5053588;28;20032;-82
2022/04/04 09:28:19;;;;;;;8.80;7.30;;;;;;;;;;5053491;28;20025;-82
2022/04/04 09:31:04;;;;;;;10.35;8.10;;;;;;;;;;5056937;28;20028;-80
2022/04/04 09:33:41;;;;;;;14.23;8.25;;;;;;;;;;5049612;28;20049;-82
2022/04/04 09:36:08;;;;;;;9.25;7.85;;;;;;;;;;5051010;28;20033;-83
2022/04/04 09:38:35;;;;;;;10.23;7.65;;;;;;;;;;5052884;28;20061;-82
2022/04/04 09:41:20;;;;;;;10.82;7.40;;;;;;;;;;5053096;28;20031;-82
2022/04/04 09:43:49;;;;;;;9.98;7.55;;;;;;;;;;5052668;28;20025;-81
2022/04/04 09:46:14;;;;;;;11.73;7.87;;;;;;;;;;5052555;28;20036;-81
2022/04/04 09:49:22;;;;;;;10.45;6.82;;;;;;;;;;5051583;28;20082;-82
2022/04/04 09:51:52;;;;;;;13.57;7.43;;;;;;;;;;5050449;28;20044;-82
2022/04/04 09:54:23;;;;;;;10.50;8.18;;;;;;;;;;5050938;28;20044;-81
2022/04/04 09:56:56;;;;;;;13.20;7.97;;;;;;;;;;5052177;28;20059;-81
2022/04/04 09:59:22;;;;;;;12.63;7.70;;;;;;;;;;5051002;28;20469;-83
2022/04/04 10:01:47;;;;;;;12.68;8.75;;;;;;;;;;5052167;28;20036;-83
2022/04/04 10:04:13;;;;;;;10.00;7.45;;;;;;;;;;5052766;28;20104;-82
2022/04/04 10:06:41;;;;;;;10.88;7.75;;;;;;;;;;5052228;28;20028;-83
2022/04/04 10:09:07;;;;;;;13.50;7.70;;;;;;;;;;5052065;28;20013;-83
2022/04/04 10:11:35;;;;;;;12.23;7.97;;;;;;;;;;5050567;28;20746;-84
2022/04/04 10:14:01;;;;;;;10.23;8.10;;;;;;;;;;5051177;28;20052;-82
2022/04/04 10:16:27;;;;;;;9.98;7.68;;;;;;;;;;5052046;28;20029;-83
2022/04/04 10:18:54;;;;;;;11.48;7.90;;;;;;;;;;5052063;28;20166;-82
2022/04/04 10:21:21;;;;;;;9.77;7.50;;;;;;;;;;5051869;28;20025;-83
2022/04/04 10:23:50;;;;;;;9.07;7.32;;;;;;;;;;5050172;28;20071;-83
2022/04/04 10:26:19;;;;;;;15.37;8.10;;;;;;;;;;5056560;28;20029;-83
2022/04/04 10:28:47;;;;;;;10.80;7.47;;;;;;;;;;5050116;28;20265;-83
2022/04/04 10:31:17;;;;;;;11.68;7.65;;;;;;;;;;5050979;28;20542;-83
2022/04/04 10:33:43;;;;;;;10.65;7.95;;;;;;;;;;5051268;28;20076;-83
2022/04/04 10:36:23;;;;;;;11.50;8.07;;;;;;;;;;5049985;28;20484;-82
2022/04/04 10:38:51;;;;;;;10.60;7.82;;;;;;;;;;5047748;28;20021;-82
2022/04/04 10:41:25;;;;;;;9.27;6.78;;;;;;;;;;5048016;28;20435;-84
2022/04/04 10:43:52;;;;;;;11.80;7.53;;;;;;;;;;5050356;28;20525;-84
2022/04/04 10:46:22;;;;;;;12.18;6.88;;;;;;;;;;5049801;28;20037;-84
2022/04/04 10:49:06;;;;;;;9.60;7.47;;;;;;;;;;5049878;28;20525;-83
2022/04/04 10:51:36;;;;;;;9.73;7.07;;;;;;;;;;5050356;28;20268;-84
2022/04/04 10:54:07;;;;;;;9.43;6.93;;;;;;;;;;5051026;28;20024;-85
2022/04/04 10:56:38;;;;;;;9.02;7.00;;;;;;;;;;5049992;28;20029;-84
2022/04/04 10:59:16;;;;;;;10.18;6.55;;;;;;;;;;5048896;28;20086;-85
2022/04/04 11:01:54;;;;;;;11.52;8.00;;;;;;;;;;5050195;28;20107;-83
2022/04/04 11:04:27;;;;;;;11.18;8.45;;;;;;;;;;5048791;28;20032;-86
2022/04/04 11:09:57;;;;;;;8.80;6.80;;;;;;;;;;5050414;28;20041;-83
2022/04/04 11:12:25;;;;;;;11.55;6.78;;;;;;;;;;5049893;28;20424;-84
2022/04/04 11:15:04;;;;;;;12.30;8.55;;;;;;;;;;5050425;28;20094;-85
2022/04/04 11:17:32;;;;;;;13.17;7.60;;;;;;;;;;5050372;28;20032;-86
2022/04/04 11:20:13;;;;;;;23.63;12.40;;;;;;;;;;5049537;28;20320;-83
2022/04/04 11:22:46;;;;;;;11.57;7.07;;;;;;;;;;5049268;28;20024;-82
2022/04/04 11:25:21;;;;;;;14.00;8.40;;;;;;;;;;5049535;28;20458;-85
2022/04/04 11:27:50;;;;;;;11.75;7.78;;;;;;;;;;5048428;28;20021;-85
2022/04/04 11:30:24;;;;;;;15.13;9.52;;;;;;;;;;5054704;28;20025;-84
2022/04/04 11:32:51;;;;;;;10.60;7.82;;;;;;;;;;5052191;28;20072;-83
2022/04/04 11:35:25;;;;;;;9.75;6.75;;;;;;;;;;5054719;28;20029;-84
2022/04/04 11:38:12;;;;;;;10.38;7.45;;;;;;;;;;5055888;28;20024;-83
2022/04/04 11:40:44;;;;;;;7.88;6.10;;;;;;;;;;5051407;28;20107;-85
2022/04/04 11:43:12;;;;;;;8.77;6.70;;;;;;;;;;5054178;28;20551;-84
2022/04/04 11:45:41;;;;;;;11.98;6.70;;;;;;;;;;5052457;28;20041;-83
2022/04/04 11:48:14;;;;;;;6.95;5.80;;;;;;;;;;5052612;28;20021;-85
2022/04/04 11:50:40;;;;;;;7.43;5.03;;;;;;;;;;5054472;28;20389;-84
2022/04/04 11:53:08;;;;;;;9.25;5.30;;;;;;;;;;5049993;28;20021;-83
2022/04/04 11:55:36;;;;;;;7.28;4.60;;;;;;;;;;5052870;28;20396;-85
2022/04/04 11:58:12;;;;;;;7.63;5.22;;;;;;;;;;5052100;28;20361;-84
2022/04/04 12:00:39;;;;;;;7.82;5.32;;;;;;;;;;5055304;28;20017;-86
2022/04/04 12:03:10;;;;;;;6.65;5.50;;;;;;;;;;5053637;28;20028;-87
2022/04/04 12:05:40;;;;;;;7.60;5.70;;;;;;;;;;5055474;28;20380;-88
2022/04/04 12:08:07;;;;;;;6.65;4.63;;;;;;;;;;5052745;28;20112;-89
2022/04/04 12:10:35;;;;;;;7.53;5.90;;;;;;;;;;5055329;28;20024;-85
2022/04/04 12:13:07;;;;;;;7.18;5.32;;;;;;;;;;5054693;28;20025;-86
2022/04/04 12:15:35;;;;;;;8.80;6.32;;;;;;;;;;5054996;28;20701;-85
2022/04/04 12:18:03;;;;;;;6.88;5.63;;;;;;;;;;5053541;28;20021;-87
2022/04/04 12:20:38;;;;;;;8.80;6.43;;;;;;;;;;5053512;28;20424;-87
2022/04/04 12:25:58;;;;;;;7.57;5.40;;;;;;;;;;5054850;28;20039;-86
2022/04/04 12:28:33;;;;;;;7.78;5.30;;;;;;;;;;5054488;28;20039;-84
2022/04/04 12:31:10;;;;;;;8.88;4.45;;;;;;;;;;5052697;28;20029;-85
2022/04/04 12:33:35;;;;;;;6.13;4.63;;;;;;;;;;5054640;28;20068;-85
2022/04/04 12:36:01;;;;;;;7.70;4.78;;;;;;;;;;5054037;28;20037;-86
2022/04/04 12:38:28;;;;;;;7.13;4.75;;;;;;;;;;5052201;28;20520;-85
2022/04/04 12:41:13;;;;;;;5.70;4.28;;;;;;;;;;5058283;28;20025;-88
2022/04/04 12:43:45;;;;;;;9.02;4.95;;;;;;;;;;5053494;28;20040;-85
2022/04/04 12:46:29;;;;;;;5.68;4.50;;;;;;;;;;5053231;28;20079;-85
2022/04/04 12:49:07;;;;;;;7.32;5.75;;;;;;;;;;5054144;28;20032;-85
2022/04/04 12:51:34;;;;;;;6.90;5.05;;;;;;;;;;5052583;28;20078;-85
2022/04/04 12:54:00;;;;;;;5.97;4.65;;;;;;;;;;5053475;28;20032;-86
2022/04/04 12:56:27;;;;;;;6.50;5.13;;;;;;;;;;5051226;28;20071;-84
2022/04/04 12:59:11;;;;;;;8.18;5.10;;;;;;;;;;5053913;28;20060;-88
2022/04/04 13:01:38;;;;;;;6.82;4.93;;;;;;;;;;5052961;28;20082;-85
2022/04/04 13:04:19;;;;;;;7.28;5.00;;;;;;;;;;5053694;28;20063;-85
2022/04/04 13:06:45;;;;;;;8.50;4.90;;;;;;;;;;5055811;28;20465;-85
2022/04/04 13:09:11;;;;;;;6.38;4.53;;;;;;;;;;5054085;28;20432;-83
2022/04/04 13:11:47;;;;;;;8.52;5.03;;;;;;;;;;5053419;28;20048;-84
2022/04/04 13:14:14;;;;;;;6.38;4.47;;;;;;;;;;5051427;28;20132;-85
2022/04/04 13:16:44;;;;;;;6.80;4.70;;;;;;;;;;5052073;28;20428;-84
2022/04/04 13:19:12;;;;;;;7.45;4.40;;;;;;;;;;5053734;28;20035;-85
2022/04/04 13:21:41;;;;;;;5.47;4.40;;;;;;;;;;5053740;28;20021;-85
2022/04/04 13:24:07;;;;;;;5.63;3.95;;;;;;;;;;5053039;28;20025;-84
2022/04/04 13:26:34;;;;;;;8.68;5.28;;;;;;;;;;5052345;28;20017;-85
2022/04/04 13:28:59;;;;;;;6.35;5.07;;;;;;;;;;5051822;28;20032;-84
2022/04/04 13:31:26;;;;;;;6.93;4.82;;;;;;;;;;5049141;28;20017;-84
2022/04/04 13:33:56;;;;;;;6.78;4.40;;;;;;;;;;5052743;28;20117;-83
2022/04/04 13:36:23;;;;;;;5.70;4.70;;;;;;;;;;5053347;28;20071;-84
2022/04/04 13:38:53;;;;;;;6.63;4.50;;;;;;;;;;5051495;28;20397;-84
2022/04/04 13:41:20;;;;;;;7.17;3.93;;;;;;;;;;5052936;28;20025;-84
2022/04/04 13:43:45;;;;;;;5.68;3.88;;;;;;;;;;5051312;28;20286;-83
2022/04/04 13:46:11;;;;;;;4.70;3.58;;;;;;;;;;5052998;28;20440;-84
2022/04/04 13:48:37;;;;;;;4.53;3.55;;;;;;;;;;5051050;28;20029;-84
2022/04/04 13:51:03;;;;;;;5.72;3.83;;;;;;;;;;5051739;28;20603;-84
2022/04/04 13:53:29;;;;;;;5.57;3.88;;;;;;;;;;5051703;28;20029;-85
2022/04/04 13:55:54;;;;;;;4.25;3.60;;;;;;;;;;5051069;28;20504;-85
2022/04/04 13:58:21;;;;;;;6.15;4.63;;;;;;;;;;5050889;28;20088;-85
2022/04/04 14:00:47;;;;;;;6.95;5.15;;;;;;;;;;5049668;28;20457;-86
2022/04/04 14:03:13;;;;;;;6.78;4.85;;;;;;;;;;5050506;28;20031;-85
2022/04/04 14:05:39;;;;;;;7.22;3.72;;;;;;;;;;5050170;28;20381;-84
2022/04/04 14:08:05;;;;;;;6.05;4.47;;;;;;;;;;5050546;28;20040;-85
2022/04/04 14:10:31;;;;;;;8.95;5.75;;;;;;;;;;5052467;28;20054;-86
2022/04/04 14:12:57;;;;;;;6.25;4.40;;;;;;;;;;5049018;28;20044;-87
2022/04/04 14:15:22;;;;;;;6.50;4.60;;;;;;;;;;5049862;28;20381;-86
2022/04/04 14:17:50;;;;;;;6.93;4.03;;;;;;;;;;5050575;28;20124;-86
2022/04/04 14:20:19;;;;;;;6.00;4.22;;;;;;;;;;5050915;28;20040;-86
2022/04/04 14:22:45;;;;;;;5.20;4.18;;;;;;;;;;5048748;28;20017;-86
2022/04/04 14:25:11;;;;;;;6.57;4.90;;;;;;;;;;5050971;28;20029;-86
2022/04/04 14:27:37;;;;;;;8.73;6.07;;;;;;;;;;5050664;28;20374;-86
2022/04/04 14:30:02;;;;;;;7.82;5.57;;;;;;;;;;5050651;28;20025;-85
2022/04/04 14:32:28;;;;;;;6.22;4.85;;;;;;;;;;5049034;28;20035;-85
2022/04/04 14:34:53;;;;;;;7.65;5.07;;;;;;;;;;5048017;28;20041;-87
2022/04/04 14:37:19;;;;;;;7.55;4.60;;;;;;;;;;5050988;28;20029;-85
2022/04/04 14:39:45;;;;;;;8.10;5.10;;;;;;;;;;5049804;28;20021;-85
2022/04/04 14:42:13;;;;;;;7.80;5.22;;;;;;;;;;5048381;28;20036;-86
2022/04/04 14:44:40;;;;;;;8.63;4.88;;;;;;;;;;5050202;28;20032;-85
2022/04/04 14:47:05;;;;;;;12.40;5.38;;;;;;;;;;5049075;28;20029;-86